LHPP/PEV METAR and TAF weather

Enter ICAO airport designator
Station Type Date Time Source
LHPP METAR 2020/09/18 17:15 UTC NOAA

LHPP 181715Z 29005KT CAVOK 18/10 Q1024


Station Type Date Time Source
LHPP Decoded METAR 2020/09/18 17:15 UTC NOAA

Pecs / Pogany, Hungary (LHPP) 46-06N 018-14E 203M
Sep 18, 2020 - 01:15 PM EDT / 2020.09.18 1715 UTC
Wind: from the WNW (290 degrees) at 6 MPH (5 KT):0
Visibility: greater than 7 mile(s):0
Temperature: 64 F (18 C)
Dew Point: 50 F (10 C)
Relative Humidity: 59%
Pressure (altimeter): 30.24 in. Hg (1024 hPa)
ob: LHPP 181715Z 29005KT CAVOK 18/10 Q1024
cycle: 17

Station Type Date Time Source
LHPP TAF 2017/08/21 15:50 UTC NOAA

TAF LHPP 211700Z 2115/2214 CNL

Example: see airport list